Time;durP1;ratioP1;P1;durP2;ratioP2;P2;SDS_P1;SDS_P2;PMS_P1;PMS_P2;Temp;Humidity;BMP_temperature;BMP_pressure;BME280_temperature;BME280_humidity;BME280_pressure;Samples;Min_cycle;Max_cycle;Signal;HPM_P1;HPM_P2
2023/06/05 00:01:37;;;;;;;6.53;3.97;;;8.50;96.70;;;;;;5036378;28;20418;-77
2023/06/05 00:04:03;;;;;;;4.55;2.70;;;8.50;96.20;;;;;;5036097;28;20060;-80
2023/06/05 00:06:29;;;;;;;4.82;2.53;;;8.50;95.70;;;;;;5018301;28;20483;-80
2023/06/05 00:08:54;;;;;;;5.13;3.25;;;8.50;96.20;;;;;;5018396;28;20043;-77
2023/06/05 00:11:21;;;;;;;5.60;3.00;;;8.60;95.10;;;;;;5036076;28;20041;-80
2023/06/05 00:13:47;;;;;;;7.57;3.30;;;8.60;95.20;;;;;;5018174;28;20014;-80
2023/06/05 00:16:12;;;;;;;6.72;3.92;;;8.60;95.10;;;;;;5035944;28;20021;-80
2023/06/05 00:18:38;;;;;;;8.73;5.38;;;8.50;94.80;;;;;;5035827;28;20379;-80
2023/06/05 00:21:04;;;;;;;9.90;5.45;;;8.40;94.40;;;;;;5035810;28;20025;-81
2023/06/05 00:23:29;;;;;;;6.20;4.30;;;8.30;94.80;;;;;;5018057;28;20017;-81
2023/06/05 00:25:57;;;;;;;9.82;4.53;;;8.30;96.30;;;;;;5035734;28;20030;-77
2023/06/05 00:28:24;;;;;;;8.25;4.10;;;8.30;96.90;;;;;;5035678;28;20053;-77
2023/06/05 00:30:49;;;;;;;5.10;3.22;;;8.30;96.80;;;;;;5016942;28;20108;-78
2023/06/05 00:33:15;;;;;;;5.57;3.72;;;8.30;97.70;;;;;;5035910;28;20060;-81
2023/06/05 00:35:41;;;;;;;9.10;4.45;;;8.30;97.60;;;;;;5035809;28;20022;-77
2023/06/05 00:38:06;;;;;;;7.65;4.10;;;8.30;96.90;;;;;;5017802;28;20021;-77
2023/06/05 00:40:32;;;;;;;8.07;3.92;;;8.30;96.10;;;;;;5035589;28;20021;-77
2023/06/05 00:42:58;;;;;;;7.95;4.00;;;8.30;95.70;;;;;;5035573;28;20076;-81
2023/06/05 00:45:24;;;;;;;5.68;3.25;;;8.30;95.70;;;;;;5017756;28;20026;-77
2023/06/05 00:47:50;;;;;;;9.40;3.70;;;8.40;94.70;;;;;;5017599;28;20032;-81
2023/06/05 00:50:17;;;;;;;4.95;3.50;;;8.40;95.20;;;;;;5035362;28;20038;-78
2023/06/05 00:52:43;;;;;;;7.82;3.55;;;8.30;96.10;;;;;;5017463;28;20022;-78
2023/06/05 00:55:10;;;;;;;6.03;3.70;;;8.40;96.50;;;;;;5035252;28;20053;-80
2023/06/05 00:57:38;;;;;;;5.82;3.63;;;8.30;97.00;;;;;;5035248;28;20025;-77
2023/06/05 01:00:07;;;;;;;4.85;3.10;;;8.30;96.70;;;;;;5035111;28;20482;-81
2023/06/05 01:02:34;;;;;;;5.53;3.22;;;8.30;96.70;;;;;;5034881;28;20051;-81
2023/06/05 01:05:00;;;;;;;8.13;3.58;;;8.30;97.90;;;;;;5017292;28;20021;-77
2023/06/05 01:07:27;;;;;;;5.03;3.15;;;8.30;98.70;;;;;;5017102;28;20230;-77
2023/06/05 01:09:54;;;;;;;5.82;2.88;;;8.30;99.90;;;;;;5034841;28;20037;-82
2023/06/05 01:12:52;;;;;;;4.63;2.97;;;8.30;99.90;;;;;;5035075;28;20075;-78
2023/06/05 01:15:28;;;;;;;3.47;2.72;;;8.30;99.90;;;;;;5019627;28;20049;-81
2023/06/05 01:17:59;;;;;;;4.47;3.13;;;8.30;99.50;;;;;;5017146;28;20502;-78
2023/06/05 01:20:35;;;;;;;4.20;2.70;;;8.20;98.70;;;;;;5034905;28;20028;-77
2023/06/05 01:23:07;;;;;;;4.53;2.65;;;8.30;98.50;;;;;;5017050;28;20116;-77
2023/06/05 01:25:34;;;;;;;;;;;8.30;99.40;;;;;;5035193;28;20115;-81
2023/06/05 01:28:22;;;;;;;4.68;3.25;;;8.30;99.20;;;;;;5034789;28;19924;-80
2023/06/05 01:31:03;;;;;;;3.65;2.50;;;8.30;98.50;;;;;;5034509;28;20390;-78
2023/06/05 01:33:43;;;;;;;3.38;2.70;;;8.40;98.30;;;;;;5034574;28;20021;-78
2023/06/05 01:36:13;;;;;;;5.90;2.80;;;8.40;99.90;;;;;;5016808;28;20021;-81
2023/06/05 01:38:40;;;;;;;3.45;2.38;;;8.40;99.90;;;;;;5034424;28;20030;-80
2023/06/05 01:41:08;;;;;;;3.50;2.63;;;8.40;99.90;;;;;;5034135;28;20029;-82
2023/06/05 01:43:35;;;;;;;4.65;2.60;;;8.30;98.40;;;;;;5034376;28;20064;-82
2023/06/05 01:46:01;;;;;;;9.15;3.00;;;8.30;97.40;;;;;;5016739;28;20117;-81
2023/06/05 01:48:27;;;;;;;3.25;2.45;;;8.30;97.00;;;;;;5034396;28;20025;-77
2023/06/05 01:51:02;;;;;;;2.25;2.05;;;8.30;98.70;;;;;;5016474;28;20040;-77
2023/06/05 01:53:29;;;;;;;3.75;2.55;;;8.20;99.90;;;;;;5016461;28;20051;-81
2023/06/05 01:55:58;;;;;;;3.92;2.88;;;8.20;99.90;;;;;;5016492;28;20116;-82
2023/06/05 01:58:25;;;;;;;3.65;2.30;;;8.20;99.90;;;;;;5034073;28;20467;-78
2023/06/05 02:00:52;;;;;;;2.50;2.20;;;8.20;99.90;;;;;;5034101;28;20021;-78
2023/06/05 02:03:18;;;;;;;2.58;1.88;;;8.30;99.60;;;;;;5034004;28;20099;-80
2023/06/05 02:05:44;;;;;;;2.28;2.08;;;8.30;99.20;;;;;;5033810;28;20084;-77
2023/06/05 02:08:10;;;;;;;4.20;2.47;;;8.30;99.70;;;;;;5032544;28;20021;-78
2023/06/05 02:10:37;;;;;;;3.75;2.47;;;8.30;97.80;;;;;;5033863;28;20033;-77
2023/06/05 02:13:03;;;;;;;3.00;1.90;;;8.40;98.30;;;;;;5033794;28;20022;-77
2023/06/05 02:15:31;;;;;;;3.63;2.45;;;8.40;97.30;;;;;;5032631;28;20026;-80
2023/06/05 02:17:57;;;;;;;4.10;2.30;;;8.40;96.00;;;;;;5034116;28;20021;-77
2023/06/05 02:20:27;;;;;;;3.33;2.30;;;8.50;96.20;;;;;;5034201;28;20025;-78
2023/06/05 02:22:54;;;;;;;2.90;2.10;;;8.50;96.20;;;;;;5032338;28;20028;-77
2023/06/05 02:25:26;;;;;;;3.30;2.30;;;8.50;96.20;;;;;;5032440;28;20026;-79
2023/06/05 02:27:52;;;;;;;4.03;2.10;;;8.40;96.00;;;;;;5033690;28;20040;-78
2023/06/05 02:30:18;;;;;;;5.07;2.20;;;8.40;96.30;;;;;;5025525;28;20434;-80
2023/06/05 02:32:44;;;;;;;2.40;2.20;;;8.40;96.10;;;;;;5033592;28;20013;-77
2023/06/05 02:35:10;;;;;;;3.08;2.45;;;8.40;96.60;;;;;;5033407;28;20099;-78
2023/06/05 02:37:43;;;;;;;9.25;3.88;;;8.40;96.60;;;;;;5032120;28;20033;-78
2023/06/05 02:40:10;;;;;;;4.47;2.30;;;8.40;97.70;;;;;;5033493;28;20027;-77
2023/06/05 02:42:36;;;;;;;4.15;2.53;;;8.40;98.30;;;;;;5032005;28;20506;-77
2023/06/05 02:45:03;;;;;;;4.82;2.70;;;8.40;98.00;;;;;;5033271;28;20022;-78
2023/06/05 02:47:29;;;;;;;2.75;2.40;;;8.40;98.30;;;;;;5032300;28;20029;-81
2023/06/05 02:49:56;;;;;;;4.43;1.95;;;8.40;97.80;;;;;;5031998;28;20033;-81
2023/06/05 02:52:21;;;;;;;3.00;2.13;;;8.50;98.90;;;;;;5032909;28;20056;-80
2023/06/05 02:54:47;;;;;;;3.67;2.55;;;8.50;99.70;;;;;;5031938;28;20443;-77
2023/06/05 02:57:14;;;;;;;3.28;2.30;;;8.50;99.40;;;;;;5031950;28;20040;-77
2023/06/05 02:59:39;;;;;;;6.72;3.15;;;8.60;99.90;;;;;;5033121;28;20064;-77
2023/06/05 03:02:05;;;;;;;8.13;2.75;;;8.60;98.60;;;;;;5032806;28;20057;-81
2023/06/05 03:04:34;;;;;;;5.18;2.60;;;8.70;97.30;;;;;;5033215;28;20112;-81
2023/06/05 03:07:03;;;;;;;13.27;2.53;;;8.70;96.20;;;;;;5033031;28;20025;-77
2023/06/05 03:09:29;;;;;;;8.70;2.40;;;8.80;94.90;;;;;;5032013;28;20034;-77
2023/06/05 03:11:55;;;;;;;3.50;2.35;;;8.90;94.00;;;;;;5033322;28;20128;-81
2023/06/05 03:14:20;;;;;;;6.00;2.30;;;9.00;92.70;;;;;;5033250;28;20128;-81
2023/06/05 03:16:46;;;;;;;5.70;2.47;;;9.10;91.30;;;;;;5033114;28;20026;-77
2023/06/05 03:19:12;;;;;;;4.97;2.25;;;9.40;89.20;;;;;;5031912;28;20394;-77
2023/06/05 03:21:39;;;;;;;7.88;2.28;;;9.50;87.60;;;;;;5033062;28;20093;-81
2023/06/05 03:24:08;;;;;;;3.05;2.05;;;9.70;87.40;;;;;;5031752;28;20033;-81
2023/06/05 03:26:34;;;;;;;2.47;2.15;;;9.90;87.30;;;;;;5033066;28;20471;-80
2023/06/05 03:29:00;;;;;;;2.65;2.28;;;10.20;86.60;;;;;;5031814;28;20120;-81
2023/06/05 03:31:25;;;;;;;7.03;2.72;;;10.40;85.00;;;;;;5032692;28;20099;-82
2023/06/05 03:33:51;;;;;;;5.13;2.28;;;10.70;80.90;;;;;;5032851;28;20478;-82
2023/06/05 03:36:17;;;;;;;3.40;2.08;;;10.90;77.20;;;;;;5031521;28;20067;-77
2023/06/05 03:38:46;;;;;;;3.70;1.90;;;11.10;73.70;;;;;;5031576;28;20455;-77
2023/06/05 03:41:11;;;;;;;4.88;2.20;;;11.40;73.80;;;;;;5031589;28;20113;-81
2023/06/05 03:43:37;;;;;;;2.55;2.10;;;11.60;75.60;;;;;;5031900;28;20053;-77
2023/06/05 03:46:03;;;;;;;5.50;2.45;;;11.90;73.20;;;;;;5032922;28;20044;-77
2023/06/05 03:48:29;;;;;;;4.25;2.63;;;12.00;69.80;;;;;;5031595;28;20021;-82
2023/06/05 03:50:55;;;;;;;3.95;2.22;;;12.20;68.90;;;;;;5032782;28;20517;-77
2023/06/05 03:53:22;;;;;;;4.47;2.10;;;12.30;68.30;;;;;;5031405;28;20031;-81
2023/06/05 03:55:49;;;;;;;5.28;2.75;;;12.40;67.40;;;;;;5031569;28;20022;-81
2023/06/05 03:58:16;;;;;;;2.75;2.10;;;12.50;66.90;;;;;;5032604;28;20018;-78
2023/06/05 04:00:51;;;;;;;2.13;1.90;;;12.70;67.00;;;;;;5032679;28;20028;-78
2023/06/05 04:03:18;;;;;;;3.25;2.20;;;12.90;66.50;;;;;;5045805;28;20049;-77
2023/06/05 04:05:43;;;;;;;3.13;1.90;;;13.00;66.50;;;;;;5036483;28;20032;-81
2023/06/05 04:08:11;;;;;;;5.03;2.30;;;13.10;65.80;;;;;;5056137;28;20021;-81
2023/06/05 04:10:37;;;;;;;4.53;2.30;;;13.20;65.40;;;;;;5037934;28;20367;-81
2023/06/05 04:13:03;;;;;;;2.72;2.13;;;13.40;65.10;;;;;;5055936;28;20017;-77
2023/06/05 04:15:29;;;;;;;4.10;2.50;;;13.50;64.50;;;;;;5055968;28;20538;-78
2023/06/05 04:17:55;;;;;;;3.42;1.88;;;13.50;64.40;;;;;;5037885;28;20052;-82
2023/06/05 04:20:21;;;;;;;3.33;2.35;;;13.70;64.00;;;;;;5055978;28;20040;-78
2023/06/05 04:22:47;;;;;;;5.47;2.45;;;13.80;63.70;;;;;;5055744;28;20021;-82
2023/06/05 04:25:13;;;;;;;5.40;2.38;;;13.80;63.60;;;;;;5037834;28;20028;-82
2023/06/05 04:27:40;;;;;;;3.88;2.08;;;13.90;63.30;;;;;;5055729;28;20021;-78
2023/06/05 04:30:07;;;;;;;4.38;2.20;;;14.00;63.00;;;;;;5037681;28;20040;-78
2023/06/05 04:32:34;;;;;;;8.10;2.30;;;14.00;62.50;;;;;;5037816;28;20082;-78
2023/06/05 04:35:01;;;;;;;4.57;2.55;;;14.10;63.10;;;;;;5055763;28;20032;-78
2023/06/05 04:37:26;;;;;;;2.28;2.05;;;14.20;62.80;;;;;;5037555;28;20033;-81
2023/06/05 04:39:52;;;;;;;6.20;2.58;;;14.30;62.90;;;;;;5037607;28;20036;-81
2023/06/05 04:42:17;;;;;;;5.75;2.35;;;14.30;62.90;;;;;;5055339;28;20025;-81
2023/06/05 04:44:43;;;;;;;4.85;2.30;;;14.30;63.10;;;;;;5037901;28;20052;-81
2023/06/05 04:47:09;;;;;;;3.13;2.08;;;14.40;63.80;;;;;;5037533;28;20020;-78
2023/06/05 04:49:35;;;;;;;3.00;2.50;;;14.40;63.20;;;;;;5037370;28;20478;-81
2023/06/05 04:52:00;;;;;;;3.55;2.67;;;14.50;62.60;;;;;;5055334;28;20025;-78
2023/06/05 04:54:26;;;;;;;3.97;2.40;;;14.50;63.40;;;;;;5037372;28;20516;-81
2023/06/05 04:56:52;;;;;;;3.25;2.58;;;14.60;62.70;;;;;;5055085;28;20509;-81
2023/06/05 04:59:18;;;;;;;5.13;2.58;;;14.70;62.90;;;;;;5055189;28;20025;-78
2023/06/05 05:01:44;;;;;;;2.38;2.17;;;14.70;63.00;;;;;;5054753;28;20126;-81
2023/06/05 05:04:11;;;;;;;5.10;2.40;;;14.80;63.00;;;;;;5054924;28;20025;-81
2023/06/05 05:06:38;;;;;;;4.65;2.22;;;14.80;62.80;;;;;;5054974;28;20017;-78
2023/06/05 05:09:04;;;;;;;3.63;2.53;;;14.90;62.60;;;;;;5036940;28;20021;-82
2023/06/05 05:11:29;;;;;;;4.85;2.50;;;15.00;63.10;;;;;;5025567;28;20048;-82
2023/06/05 05:13:55;;;;;;;3.28;2.05;;;15.10;62.40;;;;;;5034388;28;20021;-81
2023/06/05 05:16:22;;;;;;;3.15;2.40;;;15.10;62.70;;;;;;5015060;28;20029;-82
2023/06/05 05:18:47;;;;;;;11.35;7.95;;;15.20;62.70;;;;;;5034028;28;20479;-81
2023/06/05 05:21:13;;;;;;;4.32;2.60;;;15.30;62.60;;;;;;5014932;28;20039;-82
2023/06/05 05:23:39;;;;;;;3.88;2.45;;;15.40;62.60;;;;;;5034538;28;20060;-82
2023/06/05 05:26:05;;;;;;;7.50;3.60;;;15.40;61.40;;;;;;5034585;28;20021;-78
2023/06/05 05:28:30;;;;;;;4.75;2.58;;;15.50;62.10;;;;;;5035039;28;20467;-82
2023/06/05 05:30:57;;;;;;;3.80;2.30;;;15.50;62.10;;;;;;5034658;28;20125;-78
2023/06/05 05:33:23;;;;;;;4.35;3.00;;;15.60;63.10;;;;;;5044096;28;20494;-79
2023/06/05 05:35:48;;;;;;;3.85;2.40;;;15.70;62.00;;;;;;5036435;28;20017;-82
2023/06/05 05:38:15;;;;;;;4.25;2.33;;;15.80;62.20;;;;;;5036356;28;20418;-78
2023/06/05 05:40:41;;;;;;;5.68;3.33;;;15.90;63.20;;;;;;5036970;28;20021;-82
2023/06/05 05:43:06;;;;;;;5.18;3.20;;;16.00;63.00;;;;;;5054308;28;20081;-78
2023/06/05 05:45:32;;;;;;;9.52;3.58;;;16.10;62.50;;;;;;5054561;28;20096;-78
2023/06/05 05:47:57;;;;;;;7.30;2.53;;;16.20;61.90;;;;;;4971628;28;20057;-78
2023/06/05 05:50:23;;;;;;;6.60;3.38;;;16.40;61.80;;;;;;4993442;28;20049;-80
2023/06/05 05:52:51;;;;;;;9.52;2.80;;;16.60;62.40;;;;;;4993590;28;20121;-79
2023/06/05 05:55:17;;;;;;;7.55;2.85;;;16.70;61.20;;;;;;4992288;28;20060;-79
2023/06/05 05:57:42;;;;;;;5.53;2.80;;;16.80;61.30;;;;;;4988314;28;20105;-79
2023/06/05 06:00:12;;;;;;;5.20;2.50;;;16.90;62.00;;;;;;4970715;28;20041;-79
2023/06/05 06:02:38;;;;;;;3.80;2.40;;;17.00;60.70;;;;;;4977616;28;20082;-78
2023/06/05 06:05:05;;;;;;;3.33;2.50;;;17.00;60.30;;;;;;4989556;28;20030;-79
2023/06/05 06:07:31;;;;;;;5.03;2.60;;;17.20;60.50;;;;;;4990656;28;20076;-82
2023/06/05 06:09:58;;;;;;;6.65;2.60;;;17.40;60.00;;;;;;4989478;28;20444;-79
2023/06/05 06:12:24;;;;;;;3.05;2.42;;;17.50;59.30;;;;;;4992220;28;20070;-83
2023/06/05 06:14:50;;;;;;;6.75;2.45;;;17.70;58.80;;;;;;4992624;28;20479;-82
2023/06/05 06:17:15;;;;;;;2.22;2.00;;;17.90;58.20;;;;;;4993064;28;20022;-79
2023/06/05 06:19:42;;;;;;;6.85;2.63;;;18.00;57.70;;;;;;4993576;28;20026;-79
2023/06/05 06:22:11;;;;;;;5.88;2.42;;;18.20;58.80;;;;;;4993484;28;20029;-79
2023/06/05 06:24:39;;;;;;;5.75;2.35;;;18.20;57.40;;;;;;4994262;28;20026;-82
2023/06/05 06:27:04;;;;;;;4.03;3.00;;;18.40;57.10;;;;;;4992345;28;20029;-82
2023/06/05 06:29:31;;;;;;;4.22;2.47;;;18.50;56.80;;;;;;4990820;28;20439;-82
2023/06/05 06:31:57;;;;;;;4.20;2.83;;;18.60;57.00;;;;;;4992342;28;20026;-82
2023/06/05 06:34:24;;;;;;;7.35;2.75;;;18.80;56.10;;;;;;4991150;28;20373;-79
2023/06/05 06:36:50;;;;;;;4.85;2.30;;;18.80;55.40;;;;;;4991256;28;20030;-79
2023/06/05 06:39:17;;;;;;;8.05;2.72;;;19.00;54.70;;;;;;4992653;28;20026;-79
2023/06/05 06:41:44;;;;;;;4.18;2.45;;;19.10;53.90;;;;;;4992586;28;20031;-79
2023/06/05 06:44:10;;;;;;;8.68;2.58;;;19.20;53.60;;;;;;4994064;28;20093;-83
2023/06/05 06:46:36;;;;;;;2.92;1.90;;;19.40;52.80;;;;;;4993218;28;20564;-82
2023/06/05 06:49:02;;;;;;;4.15;2.08;;;19.40;53.50;;;;;;4994167;28;20022;-82
2023/06/05 06:51:27;;;;;;;5.60;2.40;;;19.60;53.30;;;;;;4992699;28;20030;-82
2023/06/05 06:53:53;;;;;;;3.03;1.95;;;19.70;52.70;;;;;;4992892;28;20031;-80
2023/06/05 06:56:19;;;;;;;3.15;2.13;;;19.90;53.30;;;;;;4994247;28;20101;-80
2023/06/05 06:58:45;;;;;;;5.00;2.10;;;20.00;52.40;;;;;;4994191;28;20026;-82
2023/06/05 07:01:12;;;;;;;2.90;1.80;;;20.20;52.80;;;;;;4992844;28;20040;-80
2023/06/05 07:03:40;;;;;;;8.05;2.80;;;20.40;52.50;;;;;;4994273;28;20407;-82
2023/06/05 07:06:05;;;;;;;3.10;1.95;;;20.40;51.40;;;;;;4994087;28;20504;-79
2023/06/05 07:08:31;;;;;;;3.40;1.98;;;20.40;50.60;;;;;;4992864;28;20069;-77
2023/06/05 07:10:56;;;;;;;3.90;2.47;;;20.50;50.50;;;;;;4992723;28;20062;-80
2023/06/05 07:13:22;;;;;;;3.45;2.40;;;20.70;51.00;;;;;;4994067;28;20030;-77
2023/06/05 07:15:49;;;;;;;4.97;2.53;;;20.70;49.50;;;;;;4993900;28;20041;-77
2023/06/05 07:18:17;;;;;;;5.90;2.30;;;20.80;49.10;;;;;;4992654;28;20031;-77
2023/06/05 07:20:42;;;;;;;3.67;1.95;;;21.00;47.30;;;;;;4992646;28;20022;-80
2023/06/05 07:23:08;;;;;;;5.15;2.33;;;21.10;47.20;;;;;;4993992;28;20157;-78
2023/06/05 07:25:34;;;;;;;3.63;2.28;;;21.10;46.60;;;;;;4993957;28;20026;-77
2023/06/05 07:28:00;;;;;;;4.03;2.13;;;21.20;47.80;;;;;;4992479;28;20018;-78
2023/06/05 07:30:28;;;;;;;4.65;2.03;;;21.10;45.60;;;;;;4993908;28;20455;-79
2023/06/05 07:32:55;;;;;;;4.90;2.08;;;21.10;44.00;;;;;;4992477;28;20034;-79
2023/06/05 07:35:21;;;;;;;6.50;1.83;;;21.10;43.50;;;;;;4992592;28;20118;-78
2023/06/05 07:37:47;;;;;;;4.40;2.50;;;21.30;44.50;;;;;;4993845;28;20472;-78
2023/06/05 07:40:12;;;;;;;5.18;2.10;;;21.40;44.30;;;;;;4996425;28;20041;-78
2023/06/05 07:42:38;;;;;;;3.10;2.10;;;21.50;44.40;;;;;;4996157;28;20105;-79
2023/06/05 07:45:05;;;;;;;5.38;2.10;;;21.60;43.90;;;;;;4997401;28;20026;-82
2023/06/05 07:47:31;;;;;;;2.25;1.80;;;21.80;44.30;;;;;;4997402;28;20484;-78
2023/06/05 07:50:00;;;;;;;25.80;3.13;;;21.70;42.30;;;;;;4997396;28;20048;-80
2023/06/05 07:52:27;;;;;;;3.50;1.75;;;21.50;41.60;;;;;;4995957;28;20038;-79
2023/06/05 07:54:53;;;;;;;12.48;2.42;;;21.60;42.10;;;;;;4997286;28;20038;-80
2023/06/05 07:57:19;;;;;;;5.32;1.50;;;21.50;41.40;;;;;;4997157;28;20049;-78
2023/06/05 07:59:46;;;;;;;3.05;1.50;;;21.60;39.30;;;;;;4997198;28;20026;-80
2023/06/05 08:02:12;;;;;;;5.65;2.22;;;21.50;39.30;;;;;;4996797;28;20054;-78
2023/06/05 08:04:39;;;;;;;2.60;1.67;;;21.60;40.50;;;;;;4997121;28;20423;-80
2023/06/05 08:07:05;;;;;;;3.75;2.05;;;21.60;39.70;;;;;;4997101;28;20034;-78
2023/06/05 08:09:30;;;;;;;5.28;1.75;;;21.60;40.10;;;;;;4995648;28;20024;-79
2023/06/05 08:11:56;;;;;;;1.90;1.80;;;21.60;39.70;;;;;;4995606;28;20427;-80
2023/06/05 08:14:22;;;;;;;8.75;2.25;;;21.70;40.60;;;;;;4995420;28;20117;-80
2023/06/05 08:16:47;;;;;;;1.63;1.52;;;21.70;40.20;;;;;;4995260;28;20480;-80
2023/06/05 08:19:13;;;;;;;4.00;1.92;;;21.70;39.60;;;;;;4996843;28;20391;-79
2023/06/05 08:21:38;;;;;;;5.50;1.80;;;21.70;40.10;;;;;;4996768;28;20380;-80
2023/06/05 08:24:04;;;;;;;8.88;2.80;;;21.80;40.60;;;;;;4996661;28;20032;-80
2023/06/05 08:26:30;;;;;;;2.80;2.00;;;21.80;40.40;;;;;;4996611;28;20022;-80
2023/06/05 08:28:56;;;;;;;3.50;2.08;;;21.80;42.00;;;;;;4996688;28;20022;-80
2023/06/05 08:31:21;;;;;;;3.15;2.15;;;21.60;40.60;;;;;;4995263;28;20038;-79
2023/06/05 08:33:47;;;;;;;4.75;2.03;;;21.70;41.40;;;;;;4996487;28;20555;-80
2023/06/05 08:36:13;;;;;;;2.65;1.90;;;22.00;41.80;;;;;;4995367;28;20058;-80
2023/06/05 08:38:38;;;;;;;3.17;1.90;;;22.00;41.50;;;;;;4995276;28;20121;-79
2023/06/05 08:41:12;;;;;;;1.67;1.58;;;22.20;39.80;;;;;;4996447;28;20584;-79
2023/06/05 08:43:39;;;;;;;3.33;1.83;;;22.10;39.90;;;;;;4996605;28;20385;-79
2023/06/05 08:46:06;;;;;;;5.55;2.20;;;22.10;39.90;;;;;;4996344;28;20022;-79
2023/06/05 08:48:48;;;;;;;2.13;1.92;;;22.30;40.90;;;;;;4996480;28;20030;-79
2023/06/05 08:51:17;;;;;;;5.80;1.90;;;22.40;40.50;;;;;;4995271;28;20038;-80
2023/06/05 08:53:51;;;;;;;3.30;2.00;;;22.40;40.10;;;;;;4994902;28;20436;-79
2023/06/05 08:56:17;;;;;;;2.95;1.58;;;22.50;40.00;;;;;;4994906;28;20037;-79
2023/06/05 08:58:44;;;;;;;4.43;2.25;;;22.30;39.80;;;;;;4995960;28;20026;-79
2023/06/05 09:01:10;;;;;;;3.35;2.10;;;22.50;40.70;;;;;;4994825;28;20511;-79
2023/06/05 09:03:36;;;;;;;21.50;3.22;;;22.50;40.50;;;;;;4996007;28;20054;-79
2023/06/05 09:06:04;;;;;;;3.92;1.90;;;22.40;39.60;;;;;;4995185;28;20023;-79
2023/06/05 09:08:34;;;;;;;3.78;1.77;;;22.10;39.50;;;;;;4995910;28;20105;-80
2023/06/05 09:11:25;;;;;;;15.32;3.95;;;22.30;40.20;;;;;;4994618;28;20038;-80
2023/06/05 09:13:51;;;;;;;4.07;1.77;;;22.20;39.80;;;;;;4995810;28;20380;-80
2023/06/05 09:16:44;;;;;;;3.20;1.67;;;22.30;39.90;;;;;;4993363;28;20056;-79
2023/06/05 09:19:11;;;;;;;3.67;1.60;;;22.40;39.80;;;;;;5010879;28;20045;-80
2023/06/05 09:21:37;;;;;;;3.45;1.70;;;22.40;39.70;;;;;;4995568;28;20077;-79
2023/06/05 09:24:18;;;;;;;5.40;2.50;;;22.60;40.10;;;;;;4995571;28;20027;-79
2023/06/05 09:27:00;;;;;;;3.70;2.10;;;22.40;40.00;;;;;;4994285;28;20544;-79
2023/06/05 09:29:34;;;;;;;4.50;1.95;;;22.40;39.90;;;;;;4994216;28;20145;-79
2023/06/05 09:32:09;;;;;;;4.95;1.77;;;22.30;39.20;;;;;;4994096;28;20035;-79
2023/06/05 09:34:38;;;;;;;8.32;2.83;;;22.20;39.70;;;;;;4994167;28;20030;-79
2023/06/05 09:37:06;;;;;;;3.03;1.67;;;22.30;40.60;;;;;;4995274;28;20029;-79
2023/06/05 09:39:37;;;;;;;3.95;2.10;;;22.40;40.10;;;;;;4993877;28;20050;-80
2023/06/05 09:42:03;;;;;;;4.95;2.13;;;22.40;39.30;;;;;;4995288;28;20045;-79
2023/06/05 09:44:31;;;;;;;7.68;2.40;;;22.60;39.90;;;;;;4995248;28;20030;-79
2023/06/05 09:47:05;;;;;;;24.02;3.53;;;22.40;39.20;;;;;;4995150;28;20027;-80
2023/06/05 09:49:40;;;;;;;4.78;2.22;;;22.40;39.10;;;;;;4993857;28;20030;-80
2023/06/05 09:52:07;;;;;;;2.50;1.60;;;22.50;39.20;;;;;;4993719;28;20492;-80
2023/06/05 09:54:36;;;;;;;6.30;2.47;;;22.50;39.70;;;;;;4993838;28;20435;-79
2023/06/05 09:57:04;;;;;;;4.47;2.28;;;22.70;40.30;;;;;;4994903;28;20476;-80
2023/06/05 09:59:31;;;;;;;6.03;2.50;;;22.90;40.30;;;;;;4995001;28;20033;-81
2023/06/05 10:02:01;;;;;;;2.20;1.80;;;22.90;39.70;;;;;;4994811;28;20442;-79
2023/06/05 10:04:28;;;;;;;4.53;2.38;;;23.00;39.40;;;;;;4994979;28;20041;-79
2023/06/05 10:06:59;;;;;;;4.85;2.72;;;23.10;39.40;;;;;;4994728;28;20365;-80
2023/06/05 10:09:25;;;;;;;4.32;1.98;;;23.20;38.40;;;;;;4994691;28;20088;-80
2023/06/05 10:11:52;;;;;;;2.15;1.70;;;22.80;38.90;;;;;;4994593;28;20058;-80
2023/06/05 10:14:19;;;;;;;3.78;2.28;;;22.70;38.80;;;;;;4993401;28;20022;-79
2023/06/05 10:16:51;;;;;;;4.65;1.90;;;22.90;40.30;;;;;;4986919;28;20080;-78
2023/06/05 10:19:20;;;;;;;5.10;2.45;;;22.80;39.60;;;;;;4992595;28;20054;-78
2023/06/05 10:21:49;;;;;;;5.63;1.85;;;22.90;39.30;;;;;;4991910;28;20106;-79
2023/06/05 10:24:22;;;;;;;5.53;2.03;;;23.20;39.50;;;;;;4995852;28;20033;-80
2023/06/05 10:27:03;;;;;;;4.75;2.20;;;23.40;39.90;;;;;;5000209;28;20041;-79
2023/06/05 10:29:47;;;;;;;4.10;2.17;;;23.10;38.70;;;;;;4999461;28;20030;-80
2023/06/05 10:32:28;;;;;;;3.85;1.90;;;23.20;39.30;;;;;;5001809;28;20129;-79
2023/06/05 10:35:27;;;;;;;5.00;2.72;;;23.10;39.50;;;;;;5002099;28;20050;-79
2023/06/05 10:38:11;;;;;;;6.53;2.47;;;22.90;38.80;;;;;;4999700;28;20026;-79
2023/06/05 10:40:38;;;;;;;4.35;1.80;;;23.00;39.40;;;;;;4993372;28;20408;-79
2023/06/05 10:43:25;;;;;;;3.58;2.20;;;23.10;39.50;;;;;;4993063;28;20026;-79
2023/06/05 10:45:53;;;;;;;2.97;1.73;;;23.00;39.00;;;;;;4992948;28;20527;-80
2023/06/05 10:48:19;;;;;;;3.58;1.85;;;22.90;38.70;;;;;;5000318;28;20388;-80
2023/06/05 10:50:44;;;;;;;4.45;2.17;;;23.00;38.90;;;;;;5005477;28;20048;-81
2023/06/05 10:54:01;;;;;;;4.38;2.22;;;23.00;38.80;;;;;;5004126;28;20076;-80
2023/06/05 10:56:52;;;;;;;4.18;2.00;;;23.30;39.30;;;;;;4977836;28;20030;-80
2023/06/05 10:59:22;;;;;;;7.25;2.50;;;23.30;38.90;;;;;;5001270;28;20026;-80
2023/06/05 11:02:08;;;;;;;6.05;2.33;;;23.30;38.80;;;;;;5006696;28;20466;-80
2023/06/05 11:04:55;;;;;;;7.80;2.30;;;23.30;38.50;;;;;;5012420;28;20030;-80
2023/06/05 11:07:22;;;;;;;4.88;2.33;;;23.30;38.40;;;;;;5004778;28;20072;-80
2023/06/05 11:10:03;;;;;;;2.63;2.38;;;23.60;38.50;;;;;;4992689;28;20384;-80
2023/06/05 11:12:34;;;;;;;2.55;2.22;;;23.80;37.90;;;;;;4992817;28;20069;-81
2023/06/05 11:15:01;;;;;;;3.03;1.97;;;23.50;38.00;;;;;;4993177;28;20034;-80
2023/06/05 11:17:31;;;;;;;4.05;2.30;;;23.60;37.80;;;;;;4996588;28;20081;-79
2023/06/05 11:19:57;;;;;;;6.10;2.28;;;23.80;38.70;;;;;;4996249;28;20381;-80
2023/06/05 11:22:23;;;;;;;2.17;1.98;;;23.80;38.40;;;;;;4996331;28;20038;-80
2023/06/05 11:25:14;;;;;;;5.82;2.40;;;23.80;38.10;;;;;;4996464;28;20030;-80
2023/06/05 11:27:45;;;;;;;2.83;1.85;;;23.80;37.90;;;;;;4995434;28;20022;-80
2023/06/05 11:30:15;;;;;;;3.70;2.03;;;23.60;38.00;;;;;;4995913;28;20088;-80
2023/06/05 11:32:41;;;;;;;2.50;2.30;;;23.90;38.60;;;;;;4996391;28;20026;-81
2023/06/05 11:35:08;;;;;;;2.55;2.28;;;23.80;38.00;;;;;;4996514;28;20093;-80
2023/06/05 11:37:34;;;;;;;5.03;2.53;;;23.80;37.40;;;;;;4996675;28;20400;-80
2023/06/05 11:40:04;;;;;;;4.60;2.35;;;24.00;38.40;;;;;;5000976;28;20030;-81
2023/06/05 11:42:30;;;;;;;4.18;2.20;;;23.90;38.00;;;;;;5002820;28;20022;-80
2023/06/05 11:44:56;;;;;;;3.65;2.10;;;23.90;37.80;;;;;;5003058;28;20081;-81
2023/06/05 11:47:23;;;;;;;3.30;2.22;;;23.90;37.70;;;;;;5007344;28;20486;-80
2023/06/05 11:49:48;;;;;;;3.80;2.35;;;24.00;37.60;;;;;;5003470;28;20038;-80
2023/06/05 11:52:22;;;;;;;5.68;2.35;;;24.10;36.80;;;;;;5005347;28;20022;-80
2023/06/05 11:55:05;;;;;;;2.40;2.00;;;24.40;36.80;;;;;;5003128;28;20113;-80
2023/06/05 11:57:41;;;;;;;3.60;2.30;;;24.20;37.50;;;;;;5004871;28;20032;-81
2023/06/05 12:00:09;;;;;;;2.88;2.10;;;24.40;37.00;;;;;;5010324;28;20030;-81
2023/06/05 12:02:36;;;;;;;3.63;2.50;;;24.50;37.30;;;;;;5016096;28;20403;-81
2023/06/05 12:05:01;;;;;;;8.98;2.80;;;24.30;37.40;;;;;;5016285;28;20085;-81
2023/06/05 12:07:31;;;;;;;6.90;2.22;;;24.20;38.00;;;;;;5016143;28;20447;-81
2023/06/05 12:09:58;;;;;;;4.72;2.28;;;24.40;37.50;;;;;;5015549;28;20034;-81
2023/06/05 12:12:24;;;;;;;6.07;2.20;;;24.50;37.70;;;;;;5006912;28;20357;-80
2023/06/05 12:14:49;;;;;;;25.75;4.45;;;24.30;37.70;;;;;;5004125;28;20024;-80
2023/06/05 12:17:15;;;;;;;7.50;2.35;;;24.20;38.10;;;;;;5006782;28;20132;-80
2023/06/05 12:19:41;;;;;;;4.50;2.25;;;24.20;37.90;;;;;;5012819;28;20125;-80
2023/06/05 12:22:09;;;;;;;7.38;2.15;;;24.10;37.50;;;;;;5005389;28;20038;-80
2023/06/05 12:24:35;;;;;;;7.20;2.90;;;24.10;38.00;;;;;;5004884;28;20037;-81
2023/06/05 12:27:04;;;;;;;5.85;1.80;;;24.10;38.00;;;;;;5004031;28;20029;-81
2023/06/05 12:29:35;;;;;;;3.70;1.95;;;24.10;38.20;;;;;;5008398;28;20018;-81
2023/06/05 12:32:02;;;;;;;4.53;2.33;;;24.40;37.20;;;;;;5002716;28;20045;-81
2023/06/05 12:34:46;;;;;;;3.45;2.72;;;24.20;38.20;;;;;;5005852;28;20081;-81
2023/06/05 12:37:44;;;;;;;2.53;2.33;;;24.30;37.80;;;;;;5008172;28;20065;-80
2023/06/05 12:40:11;;;;;;;8.77;2.50;;;24.30;37.10;;;;;;5006194;28;20022;-79
2023/06/05 12:42:40;;;;;;;3.33;2.35;;;24.50;37.80;;;;;;4997212;28;20030;-80
2023/06/05 12:45:07;;;;;;;7.75;2.80;;;24.50;38.20;;;;;;4996275;28;20073;-79
2023/06/05 12:47:34;;;;;;;6.57;2.38;;;24.50;39.00;;;;;;4994557;28;20022;-79
2023/06/05 12:49:59;;;;;;;6.38;2.47;;;24.60;38.20;;;;;;4994524;28;20030;-79
2023/06/05 12:52:25;;;;;;;6.47;2.95;;;24.60;38.50;;;;;;4995809;28;20495;-79
2023/06/05 12:54:55;;;;;;;3.58;2.47;;;24.60;38.00;;;;;;5005657;28;20069;-79
2023/06/05 12:57:21;;;;;;;6.30;2.50;;;24.70;37.90;;;;;;5002701;28;20029;-79